Independence, Minnesota
Current Conditions -  °F | °C
As of 12:55 PM on Friday 31 Oct 2014 (Local Time) from KCFE Reporting Station
Clear Clear  
Wind Chill: 31°   Ceiling: Unl
Heat Index: 36°   Visibility: 10mi
Dew Point: 16°   Wind: 6mph
Humidity: 45%   Direction: 360°N
Pressure: 30.56"   Gusts: NA
Location:  45.1045°N, 93.6647°W
Report Text: KCFE 311755Z AUTO 36005KT 10SM CLR 02/M09 A3056 RMK AO2 T00201088 10020 21040
Loading
Personal Weather Stations






























Interactive Weather Map
Tropical Storm Tracking
New forecast layout! Learn more

10-Day Weather Forecast

Advertisements
Track Severe Weather on mobile